createdAt,value
2019-04-07T00:00:15.276Z,97265.61
2019-04-07T00:02:46.357Z,97275.88
2019-04-07T00:05:17.291Z,97272.00
2019-04-07T00:07:47.630Z,97269.45
2019-04-07T00:10:18.067Z,97266.42
2019-04-07T00:12:48.375Z,97270.85
2019-04-07T00:15:18.641Z,97267.02
2019-04-07T00:17:49.510Z,97270.52
2019-04-07T00:20:19.897Z,97269.88
2019-04-07T00:22:50.193Z,97268.05
2019-04-07T00:25:20.896Z,97261.75
2019-04-07T00:27:51.482Z,97260.75
2019-04-07T00:30:22.453Z,97265.11
2019-04-07T00:32:52.712Z,97261.45
2019-04-07T00:35:29.128Z,97259.42
2019-04-07T00:37:55.022Z,97258.08
2019-04-07T00:40:26.108Z,97257.15
2019-04-07T00:42:56.709Z,97257.02
2019-04-07T00:45:26.954Z,97254.78
2019-04-07T00:47:57.574Z,97248.45
2019-04-07T00:50:30.516Z,97249.36
2019-04-07T00:53:01.858Z,97257.52
2019-04-07T00:55:32.230Z,97256.30
2019-04-07T00:58:02.610Z,97258.72
2019-04-07T01:00:34.683Z,97260.08
2019-04-07T01:03:05.235Z,97263.06
2019-04-07T01:05:40.515Z,97259.29
2019-04-07T01:08:08.524Z,97265.17
2019-04-07T01:10:38.804Z,97267.08
2019-04-07T01:13:09.903Z,97264.95
2019-04-07T01:15:40.649Z,97266.56
2019-04-07T01:18:10.948Z,97266.88
2019-04-07T01:20:41.873Z,97266.95
2019-04-07T01:23:12.735Z,97264.69
2019-04-07T01:25:42.990Z,97261.66
2019-04-07T01:28:13.323Z,97257.72
2019-04-07T01:30:43.573Z,97256.45
2019-04-07T01:33:13.825Z,97260.29
2019-04-07T01:35:48.129Z,97259.55
2019-04-07T01:38:16.743Z,97255.66
2019-04-07T01:40:56.569Z,97262.45
2019-04-07T01:43:47.219Z,97268.45
2019-04-07T01:46:24.263Z,97258.08
2019-04-07T01:49:03.755Z,97267.08
2019-04-07T01:51:53.170Z,97269.64
2019-04-07T01:54:49.381Z,97262.48
2019-04-07T01:57:30.234Z,97268.31
2019-04-07T02:00:16.258Z,97262.55
2019-04-07T02:03:20.800Z,97267.13
2019-04-07T02:06:16.570Z,97270.00
2019-04-07T02:09:04.102Z,97276.55
2019-04-07T02:12:12.151Z,97268.78
2019-04-07T02:15:04.271Z,97260.92
2019-04-07T02:19:57.825Z,97251.55
2019-04-07T02:22:56.415Z,97251.44
2019-04-07T02:25:37.324Z,97252.00
2019-04-07T02:28:29.991Z,97249.16
2019-04-07T02:31:19.112Z,97252.41
2019-04-07T02:34:05.221Z,97251.44
2019-04-07T02:37:06.838Z,97255.52
2019-04-07T02:39:45.077Z,97257.88
2019-04-07T02:42:31.987Z,97254.63
2019-04-07T02:45:15.092Z,97266.13
2019-04-07T02:48:10.728Z,97262.46
2019-04-07T02:51:01.682Z,97255.59
2019-04-07T02:54:09.380Z,97259.97
2019-04-07T02:57:02.415Z,97255.89
2019-04-07T02:59:58.050Z,97265.34
2019-04-07T03:02:53.926Z,97267.05
2019-04-07T03:05:36.073Z,97270.72
2019-04-07T03:08:25.129Z,97267.95
2019-04-07T03:11:11.938Z,97271.05
2019-04-07T03:13:51.954Z,97266.39
2019-04-07T03:16:37.529Z,97267.64
2019-04-07T03:19:17.391Z,97270.81
2019-04-07T03:21:55.512Z,97265.89
2019-04-07T03:24:47.896Z,97274.59
2019-04-07T03:27:40.079Z,97274.33
2019-04-07T03:30:32.274Z,97277.80
2019-04-07T03:33:22.019Z,97277.05
2019-04-07T03:36:08.728Z,97284.12
2019-04-07T03:38:55.829Z,97278.17
2019-04-07T03:41:45.823Z,97280.52
2019-04-07T03:44:25.486Z,97283.31
2019-04-07T03:47:25.907Z,97289.15
2019-04-07T03:50:14.973Z,97285.65
2019-04-07T03:53:04.819Z,97286.12
2019-04-07T03:56:10.223Z,97287.95
2019-04-07T03:58:47.557Z,97284.12
2019-04-07T04:01:43.604Z,97288.98
2019-04-07T04:04:34.240Z,97284.34
2019-04-07T04:07:32.325Z,97282.48
2019-04-07T04:10:09.798Z,97290.42
2019-04-07T04:12:49.052Z,97296.06
2019-04-07T04:15:26.532Z,97295.42
2019-04-07T04:17:57.351Z,97292.06
2019-04-07T04:20:28.283Z,97289.73
2019-04-07T04:22:59.617Z,97294.12
2019-04-07T04:25:30.450Z,97287.95
2019-04-07T04:28:01.713Z,97296.76
2019-04-07T04:30:32.306Z,97296.78
2019-04-07T04:33:02.483Z,97292.06
2019-04-07T04:35:32.687Z,97292.70
2019-04-07T04:38:03.910Z,97294.33
2019-04-07T04:40:34.314Z,97296.47
2019-04-07T04:43:04.706Z,97298.77
2019-04-07T04:45:36.485Z,97302.66
2019-04-07T04:48:07.010Z,97307.33
2019-04-07T04:50:37.443Z,97313.00
2019-04-07T04:53:09.265Z,97317.50
2019-04-07T04:55:40.457Z,97318.97
2019-04-07T04:58:11.366Z,97322.34
2019-04-07T05:00:42.731Z,97325.73
2019-04-07T05:03:13.668Z,97329.27
2019-04-07T05:05:44.046Z,97331.20
2019-04-07T05:08:14.251Z,97332.53
2019-04-07T05:10:44.922Z,97337.50
2019-04-07T05:13:16.044Z,97334.28
2019-04-07T05:15:46.856Z,97335.68
2019-04-07T05:18:17.438Z,97340.66
2019-04-07T05:20:48.004Z,97344.19
2019-04-07T05:23:18.528Z,97351.72
2019-04-07T05:25:49.160Z,97351.39
2019-04-07T05:28:20.049Z,97353.11
2019-04-07T05:30:50.244Z,97353.11
2019-04-07T05:33:21.112Z,97358.59
2019-04-07T05:35:53.238Z,97358.95
2019-04-07T05:38:24.037Z,97361.95
2019-04-07T05:40:54.292Z,97366.16
2019-04-07T05:43:25.195Z,97373.39
2019-04-07T05:45:55.537Z,97370.05
2019-04-07T05:48:26.461Z,97372.52
2019-04-07T05:50:59.957Z,97379.59
2019-04-07T05:53:28.683Z,97378.55
2019-04-07T05:55:58.840Z,97376.98
2019-04-07T05:58:29.090Z,97380.98
2019-04-07T06:01:00.569Z,97375.97
2019-04-07T06:03:30.897Z,97380.43
2019-04-07T06:06:01.455Z,97381.45
2019-04-07T06:08:37.673Z,97383.82
2019-04-07T06:11:04.189Z,97386.80
2019-04-07T06:13:35.494Z,97384.19
2019-04-07T06:16:05.855Z,97384.91
2019-04-07T06:18:36.990Z,97386.23
2019-04-07T06:21:07.775Z,97395.00
2019-04-07T06:23:38.665Z,97388.80
2019-04-07T06:26:11.639Z,97392.74
2019-04-07T06:28:41.967Z,97379.08
2019-04-07T06:31:12.758Z,97393.13
2019-04-07T06:33:43.097Z,97389.50
2019-04-07T06:36:13.407Z,97389.09
2019-04-07T06:38:50.344Z,97393.02
2019-04-07T06:41:17.471Z,97392.95
2019-04-07T06:43:47.982Z,97388.77
2019-04-07T06:46:49.283Z,97393.47
2019-04-07T06:49:43.418Z,97393.16
2019-04-07T06:52:20.883Z,97389.46
2019-04-07T06:54:58.927Z,97388.50
2019-04-07T06:57:44.951Z,97385.83
2019-04-07T07:00:43.273Z,97388.61
2019-04-07T07:03:36.017Z,97386.91
2019-04-07T07:06:22.943Z,97386.31
2019-04-07T07:09:26.463Z,97386.09
2019-04-07T07:12:22.559Z,97384.89
2019-04-07T07:15:00.822Z,97398.30
2019-04-07T07:17:43.454Z,97403.38
2019-04-07T07:20:28.692Z,97410.11
2019-04-07T07:23:19.417Z,97407.13
2019-04-07T07:25:50.719Z,97413.62
2019-04-07T07:28:21.283Z,97415.55
2019-04-07T07:30:52.877Z,97415.60
2019-04-07T07:33:24.464Z,97416.75
2019-04-07T07:35:55.240Z,97425.51
2019-04-07T07:38:27.015Z,97416.84
2019-04-07T07:41:00.983Z,97420.86
2019-04-07T07:43:31.825Z,97419.25
2019-04-07T07:46:02.199Z,97423.69
2019-04-07T07:48:33.567Z,97420.41
2019-04-07T07:51:04.366Z,97414.81
2019-04-07T07:53:36.182Z,97414.31
2019-04-07T07:56:10.732Z,97421.05
2019-04-07T07:58:38.527Z,97421.06
2019-04-07T08:01:11.296Z,97425.59
2019-04-07T08:03:41.440Z,97431.34
2019-04-07T08:06:12.751Z,97440.89
2019-04-07T08:08:46.199Z,97445.42
2019-04-07T08:11:17.523Z,97449.56
2019-04-07T08:13:48.129Z,97453.09
2019-04-07T08:16:19.183Z,97451.77
2019-04-07T08:18:51.034Z,97452.76
2019-04-07T08:21:22.570Z,97451.27
2019-04-07T08:23:53.497Z,97449.09
2019-04-07T08:26:25.085Z,97448.08
2019-04-07T08:28:56.459Z,97449.08
2019-04-07T08:31:26.774Z,97445.38
2019-04-07T08:33:59.662Z,97452.09
2019-04-07T08:36:30.626Z,97452.11
2019-04-07T08:39:00.993Z,97449.57
2019-04-07T08:41:32.581Z,97448.91
2019-04-07T08:44:04.272Z,97444.39
2019-04-07T08:46:38.627Z,97450.77
2019-04-07T08:49:07.628Z,97449.20
2019-04-07T08:51:38.270Z,97448.72
2019-04-07T08:54:08.784Z,97445.71
2019-04-07T08:56:39.211Z,97441.19
2019-04-07T08:59:12.799Z,97445.90
2019-04-07T09:01:41.766Z,97443.38
2019-04-07T09:04:15.071Z,97439.14
2019-04-07T09:06:43.927Z,97442.80
2019-04-07T09:09:14.188Z,97451.15
2019-04-07T09:11:44.442Z,97451.33
2019-04-07T09:14:17.089Z,97450.86
2019-04-07T09:17:30.925Z,97461.48
2019-04-07T09:19:55.405Z,97453.91
2019-04-07T09:22:51.465Z,97459.42
2019-04-07T09:25:28.134Z,97466.03
2019-04-07T09:28:11.118Z,97461.49
2019-04-07T09:30:52.503Z,97458.76
2019-04-07T09:33:42.137Z,97455.45
2019-04-07T09:36:20.683Z,97457.83
2019-04-07T09:39:01.870Z,97456.38
2019-04-07T09:42:00.942Z,97453.91
2019-04-07T09:44:52.973Z,97449.92
2019-04-07T09:47:42.165Z,97457.35
2019-04-07T09:50:26.778Z,97464.19
2019-04-07T09:53:02.087Z,97465.53
2019-04-07T09:55:50.544Z,97457.73
2019-04-07T09:58:42.762Z,97462.83
2019-04-07T10:01:29.813Z,97465.20
2019-04-07T10:04:15.427Z,97465.63
2019-04-07T10:07:11.115Z,97460.24
2019-04-07T10:09:54.862Z,97465.77
2019-04-07T10:12:50.047Z,97461.71
2019-04-07T10:15:38.538Z,97468.34
2019-04-07T10:18:28.595Z,97468.73
2019-04-07T10:21:27.649Z,97470.39
2019-04-07T10:24:06.266Z,97469.09
2019-04-07T10:27:01.798Z,97466.81
2019-04-07T10:29:38.577Z,97463.13
2019-04-07T10:32:27.901Z,97466.05
2019-04-07T10:35:23.578Z,97471.37
2019-04-07T10:38:20.036Z,97461.83
2019-04-07T10:41:09.405Z,97467.08
2019-04-07T10:43:56.659Z,97476.13
2019-04-07T10:46:52.256Z,97481.91
2019-04-07T10:49:30.587Z,97483.43
2019-04-07T10:52:19.891Z,97479.55
2019-04-07T10:55:13.094Z,97483.09
2019-04-07T10:57:50.535Z,97481.89
2019-04-07T11:00:31.933Z,97478.03
2019-04-07T11:03:11.000Z,97479.02
2019-04-07T11:05:58.194Z,97480.09
2019-04-07T11:08:35.598Z,97478.73
2019-04-07T11:11:43.830Z,97470.55
2019-04-07T11:14:36.085Z,97474.27
2019-04-07T11:17:14.018Z,97477.56
2019-04-07T11:19:54.759Z,97482.02
2019-04-07T11:23:00.935Z,97483.23
2019-04-07T11:25:52.806Z,97485.60
2019-04-07T11:31:15.718Z,97493.38
2019-04-07T11:34:17.489Z,97502.77
2019-04-07T11:37:12.013Z,97499.23
2019-04-07T11:39:48.495Z,97498.20
2019-04-07T11:42:48.023Z,97497.64
2019-04-07T11:45:26.975Z,97501.33
2019-04-07T11:48:08.765Z,97509.33
2019-04-07T11:50:50.919Z,97502.80
2019-04-07T11:53:27.441Z,97505.88
2019-04-07T11:56:09.920Z,97503.54
2019-04-07T11:59:06.817Z,97501.07
2019-04-07T12:01:54.308Z,97499.74
2019-04-07T12:04:50.064Z,97498.41
2019-04-07T12:07:30.472Z,97491.87
2019-04-07T12:10:21.441Z,97486.24
2019-04-07T12:13:12.265Z,97487.16
2019-04-07T12:16:04.637Z,97494.44
2019-04-07T12:18:51.908Z,97493.50
2019-04-07T12:21:37.500Z,97496.95
2019-04-07T12:24:39.261Z,97504.86
2019-04-07T12:27:31.478Z,97509.37
2019-04-07T12:30:39.180Z,97511.92
2019-04-07T12:33:42.002Z,97503.92
2019-04-07T12:36:44.190Z,97505.81
2019-04-07T12:39:36.103Z,97506.30
2019-04-07T12:42:31.761Z,97520.83
2019-04-07T12:45:09.997Z,97514.98
2019-04-07T12:47:59.944Z,97521.05
2019-04-07T12:50:49.925Z,97516.80
2019-04-07T12:53:42.237Z,97519.13
2019-04-07T12:56:36.107Z,97521.47
2019-04-07T12:59:24.089Z,97528.02
2019-04-07T13:02:08.410Z,97522.81
2019-04-07T13:05:03.536Z,97526.01
2019-04-07T13:07:53.250Z,97519.64
2019-04-07T13:10:38.197Z,97525.81
2019-04-07T13:13:30.222Z,97520.09
2019-04-07T13:16:09.147Z,97526.80
2019-04-07T13:19:02.255Z,97535.97
2019-04-07T13:21:47.891Z,97528.56
2019-04-07T13:24:38.918Z,97532.56
2019-04-07T13:27:26.447Z,97528.86
2019-04-07T13:30:20.428Z,97538.95
2019-04-07T13:33:05.167Z,97532.05
2019-04-07T13:35:56.300Z,97538.66
2019-04-07T13:38:54.550Z,97541.84
2019-04-07T13:41:46.389Z,97543.36
2019-04-07T13:44:29.607Z,97541.64
2019-04-07T13:47:15.875Z,97539.65
2019-04-07T13:49:55.257Z,97541.34
2019-04-07T13:52:44.364Z,97540.02
2019-04-07T13:55:36.433Z,97543.38
2019-04-07T13:58:15.062Z,97549.38
2019-04-07T14:01:03.488Z,97548.08
2019-04-07T14:03:58.032Z,97550.41
2019-04-07T14:06:56.637Z,97555.09
2019-04-07T14:09:45.245Z,97553.77
2019-04-07T14:12:43.129Z,97556.47
2019-04-07T14:15:45.572Z,97553.77
2019-04-07T14:18:36.687Z,97563.14
2019-04-07T14:21:29.646Z,97560.96
2019-04-07T14:24:21.123Z,97564.16
2019-04-07T14:27:12.257Z,97567.35
2019-04-07T14:30:02.728Z,97562.98
2019-04-07T14:33:02.289Z,97562.84
2019-04-07T14:35:47.863Z,97571.91
2019-04-07T14:38:32.978Z,97567.36
2019-04-07T14:41:23.266Z,97567.36
2019-04-07T14:44:15.395Z,97566.15
2019-04-07T14:47:12.832Z,97565.64
2019-04-07T14:50:05.462Z,97566.35
2019-04-07T14:52:45.267Z,97570.97
2019-04-07T14:55:31.509Z,97570.97
2019-04-07T14:58:29.137Z,97576.87
2019-04-07T15:01:22.551Z,97578.78
2019-04-07T15:03:52.826Z,97580.29
2019-04-07T15:06:25.911Z,97588.69
2019-04-07T15:09:02.464Z,97589.36
2019-04-07T15:11:54.730Z,97581.97
2019-04-07T15:14:26.302Z,97580.64
2019-04-07T15:16:56.907Z,97583.42
2019-04-07T15:19:27.725Z,97584.92
2019-04-07T15:21:58.276Z,97583.95
2019-04-07T15:24:30.679Z,97586.44
2019-04-07T15:27:01.243Z,97591.16
2019-04-07T15:29:31.919Z,97592.64
2019-04-07T15:32:02.937Z,97593.06
2019-04-07T15:34:34.249Z,97595.56
2019-04-07T15:37:04.496Z,97599.29
2019-04-07T15:39:37.469Z,97600.95
2019-04-07T15:42:09.295Z,97601.09
2019-04-07T15:44:41.589Z,97606.91
2019-04-07T15:47:11.955Z,97602.16
2019-04-07T15:49:42.974Z,97600.67
2019-04-07T15:52:13.557Z,97598.17
2019-04-07T15:54:43.853Z,97605.02
2019-04-07T15:57:15.005Z,97607.87
2019-04-07T15:59:46.092Z,97607.87
2019-04-07T16:02:17.239Z,97615.20
2019-04-07T16:04:48.095Z,97611.84
2019-04-07T16:07:20.124Z,97612.73
2019-04-07T16:09:56.502Z,97615.80
2019-04-07T16:12:23.925Z,97619.34
2019-04-07T16:14:54.721Z,97618.72
2019-04-07T16:17:25.295Z,97631.89
2019-04-07T16:19:55.942Z,97638.91
2019-04-07T16:22:26.336Z,97631.82
2019-04-07T16:24:57.283Z,97632.13
2019-04-07T16:27:28.275Z,97638.83
2019-04-07T16:29:59.107Z,97638.66
2019-04-07T16:32:30.081Z,97633.82
2019-04-07T16:35:01.752Z,97636.94
2019-04-07T16:37:33.667Z,97638.87
2019-04-07T16:40:09.474Z,97638.05
2019-04-07T16:42:37.853Z,97644.75
2019-04-07T16:45:12.503Z,97648.78
2019-04-07T16:47:40.571Z,97642.90
2019-04-07T16:50:11.149Z,97644.38
2019-04-07T16:52:41.879Z,97653.42
2019-04-07T16:55:37.831Z,97655.25
2019-04-07T16:58:09.618Z,97663.79
2019-04-07T17:00:41.791Z,97671.86
2019-04-07T17:03:13.199Z,97674.54
2019-04-07T17:05:43.584Z,97679.62
2019-04-07T17:08:17.672Z,97677.98
2019-04-07T17:10:46.572Z,97681.59
2019-04-07T17:13:23.777Z,97686.20
2019-04-07T17:15:51.606Z,97687.11
2019-04-07T17:18:39.726Z,97686.16
2019-04-07T17:21:13.980Z,97683.37
2019-04-07T17:23:45.370Z,97683.37
2019-04-07T17:26:16.411Z,97689.28
2019-04-07T17:28:48.216Z,97695.70
2019-04-07T17:31:18.852Z,97694.10
2019-04-07T17:33:49.274Z,97689.38
2019-04-07T17:36:22.573Z,97692.70
2019-04-07T17:39:24.586Z,97699.33
2019-04-07T17:41:57.317Z,97703.21
2019-04-07T17:44:47.798Z,97701.74
2019-04-07T17:47:37.866Z,97713.37
2019-04-07T17:50:32.623Z,97719.80
2019-04-07T17:53:28.572Z,97720.69
2019-04-07T17:56:08.869Z,97726.51
2019-04-07T17:59:04.587Z,97723.04
2019-04-07T18:01:58.127Z,97724.31
2019-04-07T18:04:55.513Z,97726.92
2019-04-07T18:07:58.533Z,97734.27
2019-04-07T18:10:51.774Z,97743.44
2019-04-07T18:13:49.720Z,97749.05
2019-04-07T18:16:34.211Z,97751.19
2019-04-07T18:19:28.407Z,97751.19
2019-04-07T18:22:34.739Z,97756.62
2019-04-07T18:25:16.200Z,97756.62
2019-04-07T18:27:55.191Z,97760.06
2019-04-07T18:30:34.759Z,97760.56
2019-04-07T18:33:16.418Z,97767.75
2019-04-07T18:36:03.329Z,97774.95
2019-04-07T18:38:49.660Z,97781.50
2019-04-07T18:41:30.784Z,97773.91
2019-04-07T18:44:29.534Z,97775.34
2019-04-07T18:47:15.089Z,97781.44
2019-04-07T18:50:07.105Z,97784.36
2019-04-07T18:52:53.256Z,97788.84
2019-04-07T18:55:39.340Z,97797.11
2019-04-07T18:58:33.238Z,97804.16
2019-04-07T19:01:22.255Z,97813.56
2019-04-07T19:04:12.157Z,97809.77
2019-04-07T19:06:54.141Z,97818.39
2019-04-07T19:09:43.442Z,97820.56
2019-04-07T19:12:36.687Z,97820.56
2019-04-07T19:15:26.250Z,97820.77
2019-04-07T19:18:14.566Z,97828.78
2019-04-07T19:21:19.165Z,97831.54
2019-04-07T19:24:11.647Z,97828.91
2019-04-07T19:27:17.360Z,97837.43
2019-04-07T19:29:49.895Z,97839.77
2019-04-07T19:32:42.335Z,97838.94
2019-04-07T19:35:36.447Z,97840.23
2019-04-07T19:38:31.420Z,97835.80
2019-04-07T19:41:19.947Z,97843.39
2019-04-07T19:44:17.459Z,97851.94
2019-04-07T19:46:59.357Z,97849.27
2019-04-07T19:49:58.507Z,97852.22
2019-04-07T19:53:04.969Z,97847.38
2019-04-07T19:55:58.445Z,97848.50
2019-04-07T19:58:51.349Z,97844.78
2019-04-07T20:01:48.085Z,97848.58
2019-04-07T20:04:37.378Z,97851.31
2019-04-07T20:07:46.100Z,97853.90
2019-04-07T20:10:42.550Z,97859.11
2019-04-07T20:13:39.561Z,97857.70
2019-04-07T20:16:24.462Z,97857.28
2019-04-07T20:19:19.712Z,97850.94
2019-04-07T20:22:07.697Z,97852.70
2019-04-07T20:25:13.237Z,97853.08
2019-04-07T20:27:51.229Z,97847.73
2019-04-07T20:30:35.676Z,97853.98
2019-04-07T20:33:29.908Z,97854.54
2019-04-07T20:36:28.911Z,97854.20
2019-04-07T20:39:09.450Z,97854.66
2019-04-07T20:42:17.500Z,97857.98
2019-04-07T20:45:14.176Z,97850.23
2019-04-07T20:47:53.335Z,97854.23
2019-04-07T20:50:33.667Z,97860.57
2019-04-07T20:53:24.206Z,97862.46
2019-04-07T20:56:13.135Z,97863.58
2019-04-07T20:59:05.683Z,97856.23
2019-04-07T21:01:58.729Z,97859.23
2019-04-07T21:04:36.331Z,97859.95
2019-04-07T21:07:21.071Z,97859.33
2019-04-07T21:10:06.559Z,97858.95
2019-04-07T21:12:54.890Z,97858.23
2019-04-07T21:16:02.358Z,97864.70
2019-04-07T21:18:51.583Z,97862.19
2019-04-07T21:21:41.660Z,97864.77
2019-04-07T21:24:20.004Z,97861.13
2019-04-07T21:27:07.773Z,97858.80
2019-04-07T21:30:02.401Z,97862.59
2019-04-07T21:32:56.804Z,97869.48
2019-04-07T21:35:38.416Z,97867.53
2019-04-07T21:38:39.041Z,97867.66
2019-04-07T21:41:38.337Z,97867.81
2019-04-07T21:44:27.049Z,97869.20
2019-04-07T21:47:12.401Z,97875.53
2019-04-07T21:49:57.780Z,97873.58
2019-04-07T21:53:06.570Z,97869.58
2019-04-07T21:55:55.335Z,97867.59
2019-04-07T21:58:40.529Z,97867.59
2019-04-07T22:01:23.048Z,97872.70
2019-04-07T22:04:06.007Z,97877.83
2019-04-07T22:06:53.893Z,97873.36
2019-04-07T22:09:30.900Z,97878.61
2019-04-07T22:12:02.215Z,97879.45
2019-04-07T22:14:32.808Z,97885.50
2019-04-07T22:17:05.718Z,97880.94
2019-04-07T22:19:37.984Z,97882.48
2019-04-07T22:22:08.801Z,97882.48
2019-04-07T22:24:39.518Z,97876.16
2019-04-07T22:27:09.876Z,97876.16
2019-04-07T22:29:40.051Z,97876.78
2019-04-07T22:32:10.254Z,97879.33
2019-04-07T22:34:41.902Z,97881.28
2019-04-07T22:37:12.264Z,97881.77
2019-04-07T22:39:43.774Z,97886.68
2019-04-07T22:42:16.451Z,97888.02
2019-04-07T22:44:45.996Z,97890.53
2019-04-07T22:47:16.830Z,97890.53
2019-04-07T22:49:47.159Z,97887.52
2019-04-07T22:52:18.883Z,97887.39
2019-04-07T22:54:49.844Z,97878.05
2019-04-07T22:57:21.877Z,97887.73
2019-04-07T22:59:52.541Z,97887.23
2019-04-07T23:02:22.741Z,97891.03
2019-04-07T23:04:53.006Z,97891.74
2019-04-07T23:07:23.607Z,97889.63
2019-04-07T23:09:53.888Z,97891.30
2019-04-07T23:12:24.623Z,97891.03
2019-04-07T23:14:56.209Z,97889.26
2019-04-07T23:17:26.729Z,97891.70
2019-04-07T23:19:57.287Z,97896.20
2019-04-07T23:22:27.776Z,97892.27
2019-04-07T23:24:58.357Z,97892.27
2019-04-07T23:27:29.765Z,97901.67
2019-04-07T23:30:00.372Z,97894.09
2019-04-07T23:32:33.012Z,97904.77
2019-04-07T23:35:04.026Z,97905.02
2019-04-07T23:37:34.885Z,97905.23
2019-04-07T23:40:06.494Z,97915.06
2019-04-07T23:42:38.177Z,97909.02
2019-04-07T23:45:08.761Z,97913.39
2019-04-07T23:47:39.016Z,97909.83
2019-04-07T23:50:09.635Z,97914.57
2019-04-07T23:52:39.869Z,97921.40
2019-04-07T23:55:10.717Z,97915.22
2019-04-07T23:57:41.075Z,97913.30
